Terminal Aerodrome Forecast
Issued by NWS

Home | Current Version | Previous Version | Text Only | Print | Product List | Glossary On
Versions: 1 2 3 4 5 6 7 8 9 10 11 12 13 14 15 16 17 18 19
000
FTUS45 KBYZ 201834 AAA
TAFLVM
TAF AMD
KLVM 201834Z 2019/2118 22030G42KT P6SM VCSH FEW080 BKN150
     FM202100 23025G43KT P6SM VCSH SCT080 BKN150
     FM210900 23022G30KT P6SM VCSH SCT030 BKN060
     FM211200 21014G20KT 5SM -RASN SCT030 BKN050=

USA.gov is the U.S. government's official web portal to all federal, state and local government web resources and services.